createdAt,value
2023-05-15T00:00:21.454Z,3.20
2023-05-15T00:03:08.677Z,3.50
2023-05-15T00:05:35.735Z,3.10
2023-05-15T00:08:05.214Z,3.30
2023-05-15T00:10:32.438Z,3.20
2023-05-15T00:12:59.322Z,3.50
2023-05-15T00:15:26.415Z,3.20
2023-05-15T00:17:54.760Z,3.50
2023-05-15T00:20:22.415Z,3.60
2023-05-15T00:22:49.358Z,3.10
2023-05-15T00:25:16.725Z,3.30
2023-05-15T00:27:43.657Z,3.00
2023-05-15T00:30:12.643Z,3.60
2023-05-15T00:32:39.857Z,3.10
2023-05-15T00:35:08.056Z,3.50
2023-05-15T00:37:34.924Z,3.10
2023-05-15T00:40:04.754Z,3.60
2023-05-15T00:42:31.992Z,3.30
2023-05-15T00:45:01.924Z,3.20
2023-05-15T00:47:30.057Z,2.90
2023-05-15T00:49:58.400Z,2.90
2023-05-15T00:52:26.131Z,3.10
2023-05-15T00:54:53.349Z,2.90
2023-05-15T00:57:21.548Z,3.00
2023-05-15T00:59:50.922Z,3.10
2023-05-15T01:02:21.445Z,2.90
2023-05-15T01:04:48.817Z,3.20
2023-05-15T01:07:16.252Z,3.10
2023-05-15T01:09:45.009Z,3.20
2023-05-15T01:12:15.914Z,3.30
2023-05-15T01:14:43.086Z,3.30
2023-05-15T01:17:10.425Z,3.20
2023-05-15T01:19:37.859Z,3.00
2023-05-15T01:22:35.755Z,3.00
2023-05-15T01:25:33.423Z,3.30
2023-05-15T01:28:04.624Z,3.30
2023-05-15T01:30:34.490Z,3.70
2023-05-15T01:33:07.674Z,3.20
2023-05-15T01:35:45.091Z,3.20
2023-05-15T01:38:20.090Z,3.30
2023-05-15T01:40:49.623Z,3.30
2023-05-15T01:43:24.525Z,3.00
2023-05-15T01:45:51.404Z,3.10
2023-05-15T01:48:21.206Z,3.20
2023-05-15T01:50:50.898Z,3.20
2023-05-15T01:53:20.044Z,3.00
2023-05-15T01:55:48.085Z,2.80
2023-05-15T01:58:16.750Z,3.20
2023-05-15T02:00:44.829Z,3.20
2023-05-15T02:03:12.694Z,3.30
2023-05-15T02:05:41.837Z,3.50
2023-05-15T02:08:10.697Z,3.30
2023-05-15T02:10:38.540Z,3.50
2023-05-15T02:13:06.125Z,3.10
2023-05-15T02:15:33.837Z,3.10
2023-05-15T02:18:00.865Z,3.50
2023-05-15T02:20:28.076Z,3.40
2023-05-15T02:22:55.317Z,3.20
2023-05-15T02:25:30.235Z,3.60
2023-05-15T02:28:02.218Z,3.20
2023-05-15T02:30:40.009Z,2.80
2023-05-15T02:33:20.625Z,3.20
2023-05-15T02:36:00.730Z,3.90
2023-05-15T02:38:32.153Z,3.20
2023-05-15T02:41:01.791Z,2.90
2023-05-15T02:43:30.372Z,3.20
2023-05-15T02:45:58.634Z,3.10
2023-05-15T02:48:26.410Z,3.40
2023-05-15T02:50:54.586Z,3.30
2023-05-15T02:53:22.352Z,3.30
2023-05-15T02:55:49.418Z,3.10
2023-05-15T02:58:16.847Z,3.40
2023-05-15T03:00:43.703Z,3.50
2023-05-15T03:03:10.752Z,3.40
2023-05-15T03:05:38.225Z,3.30
2023-05-15T03:08:06.381Z,3.30
2023-05-15T03:10:33.424Z,3.10
2023-05-15T03:13:00.619Z,3.20
2023-05-15T03:15:27.932Z,3.20
2023-05-15T03:17:55.017Z,3.30
2023-05-15T03:20:22.152Z,3.10
2023-05-15T03:22:49.202Z,3.50
2023-05-15T03:25:16.133Z,3.30
2023-05-15T03:27:43.075Z,3.30
2023-05-15T03:30:11.722Z,3.70
2023-05-15T03:32:38.855Z,3.10
2023-05-15T03:35:06.480Z,3.30
2023-05-15T03:37:33.611Z,3.30
2023-05-15T03:40:00.608Z,3.40
2023-05-15T03:42:28.024Z,3.50
2023-05-15T03:44:56.340Z,3.60
2023-05-15T03:47:23.602Z,3.50
2023-05-15T03:49:53.372Z,3.30
2023-05-15T03:52:23.268Z,3.50
2023-05-15T03:54:51.045Z,3.40
2023-05-15T03:57:18.700Z,3.00
2023-05-15T03:59:45.570Z,3.10
2023-05-15T04:02:13.122Z,3.90
2023-05-15T04:04:40.593Z,3.70
2023-05-15T04:07:10.276Z,3.40
2023-05-15T04:09:37.348Z,3.50
2023-05-15T04:12:04.829Z,3.30
2023-05-15T04:14:31.788Z,3.80
2023-05-15T04:16:58.871Z,3.70
2023-05-15T04:19:26.074Z,3.00
2023-05-15T04:21:52.973Z,3.50
2023-05-15T04:24:19.987Z,3.60
2023-05-15T04:26:47.240Z,3.30
2023-05-15T04:29:14.275Z,3.30
2023-05-15T04:31:41.283Z,3.50
2023-05-15T04:34:10.647Z,4.10
2023-05-15T04:36:37.557Z,3.40
2023-05-15T04:39:04.522Z,3.50
2023-05-15T04:41:33.270Z,3.40
2023-05-15T04:44:00.315Z,3.60
2023-05-15T04:46:29.354Z,3.20
2023-05-15T04:48:56.456Z,3.30
2023-05-15T04:51:23.978Z,3.90
2023-05-15T04:53:50.851Z,3.70
2023-05-15T04:56:17.814Z,3.50
2023-05-15T04:58:44.727Z,3.30
2023-05-15T05:01:11.738Z,3.20
2023-05-15T05:03:38.969Z,3.80
2023-05-15T05:06:06.411Z,3.60
2023-05-15T05:08:33.337Z,3.40
2023-05-15T05:11:00.596Z,3.50
2023-05-15T05:13:27.574Z,3.70
2023-05-15T05:15:54.620Z,3.60
2023-05-15T05:18:21.844Z,3.30
2023-05-15T05:20:49.830Z,3.70
2023-05-15T05:23:18.233Z,3.40
2023-05-15T05:25:45.236Z,3.70
2023-05-15T05:28:12.044Z,4.20
2023-05-15T05:30:38.916Z,3.20
2023-05-15T05:33:06.565Z,3.30
2023-05-15T05:35:33.856Z,3.50
2023-05-15T05:38:01.194Z,3.40
2023-05-15T05:40:28.454Z,3.50
2023-05-15T05:42:55.296Z,3.50
2023-05-15T05:45:22.223Z,3.40
2023-05-15T05:47:49.510Z,3.70
2023-05-15T05:50:16.477Z,3.80
2023-05-15T05:52:43.775Z,3.70
2023-05-15T05:55:11.840Z,3.50
2023-05-15T05:57:38.846Z,3.20
2023-05-15T06:00:08.891Z,4.00
2023-05-15T06:02:37.573Z,3.60
2023-05-15T06:05:06.467Z,3.30
2023-05-15T06:07:33.949Z,3.80
2023-05-15T06:10:01.565Z,3.60
2023-05-15T06:12:29.137Z,4.00
2023-05-15T06:14:56.217Z,3.60
2023-05-15T06:17:23.393Z,3.60
2023-05-15T06:19:50.654Z,3.70
2023-05-15T06:22:17.443Z,4.00
2023-05-15T06:24:44.511Z,3.60
2023-05-15T06:27:11.697Z,3.90
2023-05-15T06:29:38.602Z,4.00
2023-05-15T06:34:51.820Z,3.90
2023-05-15T06:37:18.800Z,4.00
2023-05-15T06:39:46.068Z,4.30
2023-05-15T06:42:15.252Z,4.50
2023-05-15T06:44:42.098Z,4.70
2023-05-15T06:47:09.866Z,5.00
2023-05-15T06:49:36.805Z,4.90
2023-05-15T06:52:03.868Z,5.00
2023-05-15T06:54:31.007Z,5.40
2023-05-15T06:56:58.151Z,4.80
2023-05-15T06:59:27.888Z,5.60
2023-05-15T07:01:56.079Z,5.20
2023-05-15T07:04:29.000Z,5.40
2023-05-15T07:06:56.281Z,5.70
2023-05-15T07:09:25.835Z,5.50
2023-05-15T07:11:53.071Z,5.80
2023-05-15T07:14:23.271Z,6.50
2023-05-15T07:16:50.319Z,6.70
2023-05-15T07:19:21.090Z,5.80
2023-05-15T07:21:51.368Z,6.50
2023-05-15T07:24:18.355Z,6.50
2023-05-15T07:26:58.004Z,7.00
2023-05-15T07:29:26.321Z,6.60
2023-05-15T07:31:53.404Z,7.40
2023-05-15T07:34:20.860Z,7.70
2023-05-15T07:36:48.024Z,7.30
2023-05-15T07:39:14.995Z,7.60
2023-05-15T07:41:41.890Z,7.00
2023-05-15T07:44:09.419Z,6.70
2023-05-15T07:46:36.263Z,7.10
2023-05-15T07:49:03.286Z,6.80
2023-05-15T07:51:30.368Z,6.90
2023-05-15T07:53:57.320Z,7.20
2023-05-15T07:56:24.470Z,7.40
2023-05-15T07:58:51.939Z,7.00
2023-05-15T08:01:19.033Z,7.40
2023-05-15T08:03:46.300Z,7.30
2023-05-15T08:06:13.581Z,7.00
2023-05-15T08:08:40.578Z,7.00
2023-05-15T08:11:07.883Z,8.50
2023-05-15T08:13:35.338Z,7.50
2023-05-15T08:16:02.273Z,7.10
2023-05-15T08:18:29.162Z,7.20
2023-05-15T08:20:56.343Z,7.10
2023-05-15T08:23:23.324Z,8.00
2023-05-15T08:25:50.325Z,6.80
2023-05-15T08:28:20.798Z,7.50
2023-05-15T08:30:47.655Z,7.40
2023-05-15T08:33:15.113Z,8.50
2023-05-15T08:35:42.363Z,7.20
2023-05-15T08:38:09.298Z,7.00
2023-05-15T08:40:40.231Z,7.80
2023-05-15T08:43:15.064Z,7.50
2023-05-15T08:45:43.156Z,7.60
2023-05-15T08:48:15.212Z,7.80
2023-05-15T08:50:44.078Z,7.00
2023-05-15T08:53:21.042Z,7.00
2023-05-15T08:55:48.030Z,7.60
2023-05-15T08:58:16.945Z,8.10
2023-05-15T09:00:46.130Z,7.70
2023-05-15T09:03:20.105Z,7.50
2023-05-15T09:05:49.230Z,8.10
2023-05-15T09:08:18.725Z,8.30
2023-05-15T09:10:47.122Z,9.00
2023-05-15T09:13:15.903Z,8.50
2023-05-15T09:15:43.282Z,10.00
2023-05-15T09:18:11.440Z,9.10
2023-05-15T09:20:39.808Z,9.10
2023-05-15T09:23:22.703Z,8.70
2023-05-15T09:25:53.508Z,8.80
2023-05-15T09:28:30.336Z,8.80
2023-05-15T09:31:02.390Z,9.60
2023-05-15T09:33:33.108Z,9.20
2023-05-15T09:36:00.163Z,9.50
2023-05-15T09:38:27.168Z,9.60
2023-05-15T09:41:04.539Z,8.40
2023-05-15T09:43:34.638Z,8.70
2023-05-15T09:46:01.799Z,9.50
2023-05-15T09:48:29.729Z,8.60
2023-05-15T09:50:57.555Z,9.50
2023-05-15T09:53:25.849Z,9.30
2023-05-15T09:55:56.256Z,9.90
2023-05-15T09:58:25.661Z,9.40
2023-05-15T10:00:52.785Z,9.40
2023-05-15T10:03:21.226Z,10.20
2023-05-15T10:05:48.483Z,9.70
2023-05-15T10:08:16.583Z,9.60
2023-05-15T10:10:44.693Z,10.50
2023-05-15T10:13:12.356Z,11.10
2023-05-15T10:15:40.554Z,10.30
2023-05-15T10:18:08.964Z,10.70
2023-05-15T10:20:36.853Z,10.70
2023-05-15T10:23:06.261Z,10.70
2023-05-15T10:25:39.465Z,11.30
2023-05-15T10:28:09.710Z,11.00
2023-05-15T10:30:37.646Z,11.80
2023-05-15T10:33:05.654Z,12.20
2023-05-15T10:35:32.964Z,11.30
2023-05-15T10:38:01.395Z,14.90
2023-05-15T10:40:29.660Z,12.50
2023-05-15T10:42:58.933Z,12.80
2023-05-15T10:45:26.391Z,12.90
2023-05-15T10:47:54.167Z,13.50
2023-05-15T10:50:21.266Z,12.40
2023-05-15T10:52:51.967Z,11.20
2023-05-15T10:55:19.938Z,12.50
2023-05-15T10:57:48.365Z,11.80
2023-05-15T11:00:32.372Z,12.30
2023-05-15T11:03:01.240Z,13.00
2023-05-15T11:05:30.720Z,13.00
2023-05-15T11:08:34.726Z,12.60
2023-05-15T11:11:03.111Z,12.60
2023-05-15T11:14:15.413Z,14.00
2023-05-15T11:17:01.847Z,12.90
2023-05-15T11:19:36.001Z,13.00
2023-05-15T11:22:05.015Z,12.30
2023-05-15T11:24:33.305Z,12.30
2023-05-15T11:27:05.132Z,10.70
2023-05-15T11:29:35.234Z,12.00
2023-05-15T11:32:02.050Z,11.70
2023-05-15T11:34:35.746Z,11.20
2023-05-15T11:37:02.820Z,11.30
2023-05-15T11:39:30.034Z,12.30
2023-05-15T11:41:59.230Z,11.60
2023-05-15T11:44:27.354Z,11.80
2023-05-15T11:46:56.951Z,12.30
2023-05-15T11:49:26.465Z,11.70
2023-05-15T11:52:14.401Z,11.60
2023-05-15T11:54:41.383Z,12.40
2023-05-15T11:57:22.506Z,11.90
2023-05-15T11:59:49.347Z,12.60
2023-05-15T12:02:17.664Z,10.80
2023-05-15T12:04:45.063Z,11.50
2023-05-15T12:07:12.202Z,12.60
2023-05-15T12:09:40.721Z,12.80
2023-05-15T12:12:13.885Z,12.10
2023-05-15T12:14:42.309Z,13.00
2023-05-15T12:17:09.614Z,13.20
2023-05-15T12:19:38.968Z,13.90
2023-05-15T12:22:08.560Z,13.70
2023-05-15T12:24:39.778Z,13.10
2023-05-15T12:27:08.026Z,13.50
2023-05-15T12:29:35.365Z,12.60
2023-05-15T12:32:02.441Z,12.80
2023-05-15T12:34:29.681Z,12.90
2023-05-15T12:36:59.753Z,13.70
2023-05-15T12:39:26.975Z,14.00
2023-05-15T12:41:55.088Z,14.40
2023-05-15T12:44:22.927Z,13.60
2023-05-15T12:46:56.613Z,13.90
2023-05-15T12:49:26.930Z,13.40
2023-05-15T12:51:53.787Z,14.00
2023-05-15T12:54:21.740Z,14.20
2023-05-15T12:56:49.834Z,14.70
2023-05-15T12:59:16.825Z,15.30
2023-05-15T13:01:44.824Z,15.30
2023-05-15T13:04:12.528Z,15.10
2023-05-15T13:06:46.893Z,16.20
2023-05-15T13:09:15.408Z,16.80
2023-05-15T13:11:46.015Z,15.30
2023-05-15T13:14:17.599Z,14.90
2023-05-15T13:16:46.421Z,14.80
2023-05-15T13:19:14.211Z,16.20
2023-05-15T13:21:51.891Z,16.50
2023-05-15T13:24:19.033Z,14.90
2023-05-15T13:26:48.540Z,15.20
2023-05-15T13:29:36.415Z,16.20
2023-05-15T13:32:03.317Z,16.20
2023-05-15T13:34:30.463Z,15.60
2023-05-15T13:36:57.416Z,16.20
2023-05-15T13:39:24.828Z,15.90
2023-05-15T13:41:51.942Z,15.30
2023-05-15T13:44:19.251Z,15.70
2023-05-15T13:46:47.744Z,15.10
2023-05-15T13:49:22.057Z,14.60
2023-05-15T13:52:09.527Z,14.40
2023-05-15T13:54:36.499Z,13.30
2023-05-15T13:57:03.650Z,13.70
2023-05-15T13:59:30.459Z,14.20
2023-05-15T14:01:57.637Z,14.50
2023-05-15T14:04:24.711Z,14.80
2023-05-15T14:06:52.446Z,14.30
2023-05-15T14:09:19.444Z,14.10
2023-05-15T14:11:46.398Z,14.40
2023-05-15T14:14:13.343Z,14.40
2023-05-15T14:16:43.755Z,14.00
2023-05-15T14:19:10.946Z,14.00
2023-05-15T14:21:38.212Z,13.30
2023-05-15T14:24:05.724Z,13.00
2023-05-15T14:26:33.023Z,12.40
2023-05-15T14:29:00.017Z,12.80
2023-05-15T14:31:27.264Z,12.70
2023-05-15T14:33:54.787Z,12.40
2023-05-15T14:36:21.629Z,13.00
2023-05-15T14:38:49.196Z,12.90
2023-05-15T14:41:16.538Z,12.40
2023-05-15T14:43:43.767Z,12.70
2023-05-15T14:46:11.499Z,12.70
2023-05-15T14:48:38.630Z,14.10
2023-05-15T14:51:05.929Z,12.50
2023-05-15T14:53:32.810Z,12.10
2023-05-15T14:55:59.842Z,13.20
2023-05-15T14:58:27.667Z,13.00
2023-05-15T15:00:54.512Z,13.10
2023-05-15T15:03:22.136Z,13.60
2023-05-15T15:05:49.217Z,13.10
2023-05-15T15:08:16.041Z,13.30
2023-05-15T15:10:44.010Z,13.10
2023-05-15T15:13:13.103Z,13.40
2023-05-15T15:15:40.080Z,13.80
2023-05-15T15:18:07.828Z,14.10
2023-05-15T15:23:09.286Z,14.50
2023-05-15T15:25:37.118Z,14.10
2023-05-15T15:28:04.578Z,13.70
2023-05-15T15:30:33.836Z,14.30
2023-05-15T15:33:01.194Z,12.80
2023-05-15T15:35:28.380Z,13.20
2023-05-15T15:37:55.429Z,13.40
2023-05-15T15:40:23.937Z,12.50
2023-05-15T15:42:51.281Z,12.60
2023-05-15T15:45:21.796Z,12.50
2023-05-15T15:47:48.865Z,12.50
2023-05-15T15:50:16.151Z,12.50
2023-05-15T15:52:43.550Z,12.50
2023-05-15T15:55:12.293Z,12.40
2023-05-15T15:57:39.537Z,12.10
2023-05-15T16:00:10.392Z,12.50
2023-05-15T16:02:37.697Z,11.80
2023-05-15T16:05:07.820Z,12.20
2023-05-15T16:07:35.026Z,11.60
2023-05-15T16:10:11.556Z,12.00
2023-05-15T16:12:40.670Z,11.30
2023-05-15T16:17:41.775Z,11.80
2023-05-15T16:20:10.978Z,11.10
2023-05-15T16:22:38.140Z,10.60
2023-05-15T16:25:05.893Z,9.80
2023-05-15T16:27:32.726Z,10.00
2023-05-15T16:29:59.597Z,10.50
2023-05-15T16:32:27.741Z,10.30
2023-05-15T16:34:54.817Z,10.40
2023-05-15T16:37:21.653Z,10.20
2023-05-15T16:39:50.921Z,10.00
2023-05-15T16:42:17.851Z,10.20
2023-05-15T16:44:44.847Z,10.40
2023-05-15T16:47:11.956Z,10.20
2023-05-15T16:49:38.810Z,10.80
2023-05-15T16:52:06.336Z,10.40
2023-05-15T16:54:33.894Z,10.60
2023-05-15T16:57:00.789Z,10.10
2023-05-15T16:59:27.735Z,10.10
2023-05-15T17:01:55.027Z,10.50
2023-05-15T17:04:21.939Z,10.90
2023-05-15T17:06:48.885Z,10.20
2023-05-15T17:09:16.152Z,10.50
2023-05-15T17:11:43.078Z,9.70
2023-05-15T17:14:09.916Z,10.70
2023-05-15T17:16:37.133Z,11.40
2023-05-15T17:19:04.300Z,10.30
2023-05-15T17:21:32.020Z,10.50
2023-05-15T17:23:59.464Z,10.90
2023-05-15T17:26:29.558Z,10.40
2023-05-15T17:28:56.712Z,10.70
2023-05-15T17:31:23.872Z,10.90
2023-05-15T17:33:50.927Z,10.90
2023-05-15T17:36:17.967Z,10.80
2023-05-15T17:38:45.076Z,11.20
2023-05-15T17:41:11.979Z,10.50
2023-05-15T17:43:38.864Z,11.50
2023-05-15T17:46:06.489Z,11.20
2023-05-15T17:48:33.894Z,11.00
2023-05-15T17:51:01.681Z,11.20
2023-05-15T17:53:32.418Z,11.40
2023-05-15T17:56:02.256Z,11.40
2023-05-15T17:58:32.168Z,11.90
2023-05-15T18:00:59.203Z,11.80
2023-05-15T18:03:26.683Z,12.40
2023-05-15T18:05:54.215Z,11.40
2023-05-15T18:08:21.175Z,12.20
2023-05-15T18:10:48.182Z,13.10
2023-05-15T18:13:16.692Z,13.00
2023-05-15T18:15:43.640Z,13.40
2023-05-15T18:18:11.205Z,12.70
2023-05-15T18:20:38.238Z,13.00
2023-05-15T18:23:05.197Z,13.60
2023-05-15T18:25:36.671Z,13.00
2023-05-15T18:28:03.842Z,14.10
2023-05-15T18:30:31.237Z,14.70
2023-05-15T18:32:58.461Z,15.00
2023-05-15T18:35:26.095Z,14.50
2023-05-15T18:37:53.255Z,18.60
2023-05-15T18:40:20.677Z,18.30
2023-05-15T18:42:47.805Z,11.90
2023-05-15T18:45:16.211Z,12.30
2023-05-15T18:47:43.339Z,11.70
2023-05-15T18:50:13.700Z,9.30
2023-05-15T18:52:40.712Z,10.70
2023-05-15T18:55:10.285Z,8.50
2023-05-15T18:57:37.545Z,8.30
2023-05-15T19:00:05.228Z,8.30
2023-05-15T19:02:32.723Z,8.80
2023-05-15T19:05:00.254Z,7.00
2023-05-15T19:07:28.735Z,5.70
2023-05-15T19:09:55.778Z,4.70
2023-05-15T19:12:24.076Z,3.50
2023-05-15T19:14:51.308Z,2.80
2023-05-15T19:17:20.319Z,3.20
2023-05-15T19:19:47.272Z,3.00
2023-05-15T19:22:14.293Z,2.60
2023-05-15T19:24:41.376Z,3.10
2023-05-15T19:27:08.597Z,2.80
2023-05-15T19:29:35.645Z,3.00
2023-05-15T19:32:03.079Z,3.50
2023-05-15T19:34:30.764Z,3.10
2023-05-15T19:36:57.811Z,3.40
2023-05-15T19:39:24.964Z,3.30
2023-05-15T19:41:52.007Z,3.40
2023-05-15T19:44:18.855Z,3.90
2023-05-15T19:46:46.755Z,3.70
2023-05-15T19:49:14.087Z,4.00
2023-05-15T19:51:41.379Z,3.90
2023-05-15T19:54:18.914Z,4.40
2023-05-15T19:56:48.836Z,4.60
2023-05-15T19:59:15.769Z,5.00
2023-05-15T20:01:43.424Z,5.60
2023-05-15T20:04:13.667Z,5.80
2023-05-15T20:06:40.856Z,6.80
2023-05-15T20:09:07.669Z,7.20
2023-05-15T20:11:36.952Z,8.40
2023-05-15T20:14:04.109Z,8.50
2023-05-15T20:16:31.302Z,9.00
2023-05-15T20:18:58.388Z,9.30
2023-05-15T20:21:25.452Z,10.40
2023-05-15T20:23:52.734Z,11.60
2023-05-15T20:26:20.066Z,11.90
2023-05-15T20:28:47.030Z,11.50
2023-05-15T20:31:14.136Z,12.40
2023-05-15T20:33:41.583Z,13.30
2023-05-15T20:36:09.391Z,12.30
2023-05-15T20:38:38.592Z,13.30
2023-05-15T20:41:05.773Z,12.20
2023-05-15T20:43:32.614Z,13.00
2023-05-15T20:46:00.065Z,12.80
2023-05-15T20:48:27.285Z,13.10
2023-05-15T20:50:54.804Z,13.00
2023-05-15T20:53:21.990Z,13.20
2023-05-15T20:55:49.241Z,12.90
2023-05-15T20:58:16.665Z,12.80
2023-05-15T21:00:43.964Z,13.40
2023-05-15T21:03:11.795Z,12.30
2023-05-15T21:05:38.997Z,12.40
2023-05-15T21:08:06.539Z,12.90
2023-05-15T21:10:33.699Z,13.00
2023-05-15T21:13:00.748Z,12.70
2023-05-15T21:15:27.812Z,12.60
2023-05-15T21:17:54.938Z,11.80
2023-05-15T21:20:22.090Z,11.30
2023-05-15T21:22:49.536Z,11.50
2023-05-15T21:25:19.106Z,11.50
2023-05-15T21:27:46.298Z,11.00
2023-05-15T21:30:15.085Z,10.30
2023-05-15T21:32:42.069Z,10.80
2023-05-15T21:35:10.666Z,10.80
2023-05-15T21:37:37.856Z,9.80
2023-05-15T21:40:06.684Z,10.00
2023-05-15T21:42:34.115Z,9.40
2023-05-15T21:45:01.557Z,10.20
2023-05-15T21:47:29.051Z,9.40
2023-05-15T21:49:56.685Z,10.00
2023-05-15T21:52:24.285Z,9.50
2023-05-15T21:54:51.168Z,9.50
2023-05-15T21:57:18.403Z,9.30
2023-05-15T21:59:45.722Z,8.40
2023-05-15T22:02:12.642Z,8.50
2023-05-15T22:04:39.762Z,8.30
2023-05-15T22:07:07.385Z,8.10
2023-05-15T22:09:34.305Z,8.60
2023-05-15T22:12:01.213Z,8.50
2023-05-15T22:14:28.803Z,8.20
2023-05-15T22:16:56.016Z,8.30
2023-05-15T22:19:32.646Z,8.10
2023-05-15T22:22:00.494Z,7.20
2023-05-15T22:24:27.370Z,8.00
2023-05-15T22:26:54.384Z,7.90
2023-05-15T22:29:21.956Z,7.60
2023-05-15T22:31:48.872Z,8.00
2023-05-15T22:34:15.941Z,8.10
2023-05-15T22:36:42.961Z,7.90
2023-05-15T22:39:10.075Z,7.70
2023-05-15T22:41:36.987Z,7.50
2023-05-15T22:44:04.988Z,7.40
2023-05-15T22:46:31.953Z,7.30
2023-05-15T22:49:00.572Z,6.80
2023-05-15T22:51:27.647Z,6.80
2023-05-15T22:53:54.507Z,7.60
2023-05-15T22:56:21.514Z,6.80
2023-05-15T22:58:49.032Z,7.20
2023-05-15T23:01:16.854Z,6.60
2023-05-15T23:03:43.834Z,7.30
2023-05-15T23:06:10.869Z,6.30
2023-05-15T23:08:38.292Z,6.50
2023-05-15T23:11:05.340Z,7.40
2023-05-15T23:13:32.695Z,6.60
2023-05-15T23:15:59.677Z,6.60
2023-05-15T23:18:26.796Z,7.00
2023-05-15T23:20:54.166Z,6.80
2023-05-15T23:23:21.299Z,6.80
2023-05-15T23:25:48.238Z,6.50
2023-05-15T23:28:15.435Z,7.20
2023-05-15T23:30:42.267Z,7.20
2023-05-15T23:33:09.441Z,7.20
2023-05-15T23:35:36.541Z,6.80
2023-05-15T23:38:03.801Z,7.10
2023-05-15T23:40:31.599Z,7.90
2023-05-15T23:42:58.840Z,7.20
2023-05-15T23:45:25.663Z,7.80
2023-05-15T23:47:52.832Z,7.30
2023-05-15T23:50:21.274Z,7.70
2023-05-15T23:52:50.783Z,8.40
2023-05-15T23:55:18.035Z,8.00
2023-05-15T23:57:47.028Z,8.20
